PWSweather.com
Personal Weather Stations
Station Observations
BLACKWELL
Blackwell, AlfretonGB DE55

BlackwellAlfretonGB DE55

Lat: 53.12076, Lon: -1.354978

Elevation: 410

Station Type: Vantage Pro

High Low Average
Temperature 43.3°F6.3°C 39.7°F4.3°C 41.9°F5.5°C
Dew Point 41.9°F5.5°C 38.8°F3.8°C 41.0°F5.0°C
Winds 3.0 mph 4.8 kmh Calm Calm 2.0 mph E3.2 kmh E
Wind Gusts 15.0 mph24.1 kmh 2.0 mph3.2 kmh 7.0 mph11.3 kmh
Humidity 97% 93% 96%
Pressure 29.52 in999.7 mb 29.15 in987.1 mb -
Precipitation 0.99 in25.1 mm - -
Hour Temp Dew Point Humidity Winds Wind Gusts Pressure Precip Precip Rate Daily Precip Total
12:11 AM 43.3°F6.3°C 41.5°F5.3°C 93% 2.0 mph ENE3.2 kmh ENE 4.0 mph6.4 kmh 29.18 in988.1 mb 0.02 in0.5 mm 0.11 in2.8 mm 0.02 in0.5 mm
01:11 AM 43.0°F6.1°C 41.5°F5.3°C 95% 2.0 mph NE3.2 kmh NE 5.0 mph8.0 kmh 29.17 in987.8 mb 0.06 in1.5 mm 0.00 in0.0 mm 0.07 in1.8 mm
02:11 AM 43.0°F6.1°C 41.9°F5.5°C 96% 2.0 mph NE3.2 kmh NE 4.0 mph6.4 kmh 29.16 in987.5 mb 0.05 in1.3 mm 0.00 in0.0 mm 0.12 in3.0 mm
03:11 AM 42.6°F5.9°C 41.7°F5.4°C 96% Calm Calm 2.0 mph3.2 kmh 29.15 in987.1 mb 0.06 in1.5 mm 0.00 in0.0 mm 0.18 in4.6 mm
04:11 AM 42.3°F5.7°C 41.2°F5.1°C 96% 1.0 mph N1.6 kmh N 4.0 mph6.4 kmh 29.15 in987.1 mb 0.09 in2.3 mm 0.00 in0.0 mm 0.27 in6.9 mm
05:11 AM 41.7°F5.4°C 41.0°F5.0°C 97% 1.0 mph N1.6 kmh N 4.0 mph6.4 kmh 29.15 in987.1 mb 0.04 in1.0 mm 0.00 in0.0 mm 0.31 in7.9 mm
06:11 AM 41.7°F5.4°C 41.0°F5.0°C 97% 1.0 mph N1.6 kmh N 6.0 mph9.7 kmh 29.15 in987.1 mb 0.03 in0.8 mm 0.00 in0.0 mm 0.35 in8.9 mm
07:11 AM 41.7°F5.4°C 41.0°F5.0°C 97% 1.0 mph N1.6 kmh N 4.0 mph6.4 kmh 29.16 in987.5 mb 0.00 in0.0 mm 0.00 in0.0 mm 0.35 in8.9 mm
08:11 AM 41.9°F5.5°C 41.2°F5.1°C 97% 1.0 mph N1.6 kmh N 5.0 mph8.0 kmh 29.17 in987.8 mb 0.01 in0.3 mm 0.00 in0.0 mm 0.35 in8.9 mm
09:11 AM 42.3°F5.7°C 41.5°F5.3°C 97% 1.0 mph N1.6 kmh N 6.0 mph9.7 kmh 29.18 in988.1 mb 0.02 in0.5 mm 0.00 in0.0 mm 0.37 in9.4 mm
10:11 AM 42.6°F5.9°C 41.7°F5.4°C 97% Calm Calm 4.0 mph6.4 kmh 29.20 in988.8 mb 0.00 in0.0 mm 0.00 in0.0 mm 0.37 in9.4 mm
11:11 AM 42.4°F5.8°C 41.5°F5.3°C 97% 2.0 mph N3.2 kmh N 9.0 mph14.5 kmh 29.21 in989.2 mb 0.09 in2.3 mm 0.00 in0.0 mm 0.46 in11.7 mm
12:11 PM 41.7°F5.4°C 41.0°F5.0°C 97% 3.0 mph N4.8 kmh N 12.0 mph19.3 kmh 29.23 in989.8 mb 0.17 in4.3 mm 0.00 in0.0 mm 0.64 in16.3 mm
01:11 PM 42.1°F5.6°C 41.2°F5.1°C 97% 3.0 mph N4.8 kmh N 12.0 mph19.3 kmh 29.23 in989.8 mb 0.07 in1.8 mm 0.00 in0.0 mm 0.71 in18.0 mm
02:11 PM 42.1°F5.6°C 41.4°F5.2°C 97% 3.0 mph N4.8 kmh N 9.0 mph14.5 kmh 29.26 in990.9 mb 0.09 in2.3 mm 0.00 in0.0 mm 0.80 in20.3 mm
03:11 PM 42.6°F5.9°C 41.9°F5.5°C 97% 1.0 mph N1.6 kmh N 7.0 mph11.3 kmh 29.27 in991.2 mb 0.02 in0.5 mm 0.00 in0.0 mm 0.82 in20.8 mm
04:11 PM 42.3°F5.7°C 41.5°F5.3°C 97% 2.0 mph N3.2 kmh N 9.0 mph14.5 kmh 29.29 in991.9 mb 0.01 in0.3 mm 0.00 in0.0 mm 0.83 in21.1 mm
05:11 PM 42.3°F5.7°C 41.2°F5.1°C 96% 2.0 mph N3.2 kmh N 9.0 mph14.5 kmh 29.32 in992.9 mb 0.01 in0.3 mm 0.00 in0.0 mm 0.83 in21.1 mm
06:11 PM 41.9°F5.5°C 40.8°F4.9°C 96% 3.0 mph N4.8 kmh N 11.0 mph17.7 kmh 29.36 in994.2 mb 0.02 in0.5 mm 0.00 in0.0 mm 0.86 in21.8 mm
07:11 PM 41.2°F5.1°C 40.1°F4.5°C 96% 3.0 mph N4.8 kmh N 15.0 mph24.1 kmh 29.40 in995.6 mb 0.09 in2.3 mm 0.00 in0.0 mm 0.95 in24.1 mm
08:11 PM 41.0°F5.0°C 39.9°F4.4°C 96% 2.0 mph N3.2 kmh N 8.0 mph12.9 kmh 29.43 in996.6 mb 0.04 in1.0 mm 0.00 in0.0 mm 0.99 in25.1 mm
09:11 PM 40.6°F4.8°C 39.6°F4.2°C 96% 2.0 mph N3.2 kmh N 10.0 mph16.1 kmh 29.47 in998.0 mb 0.00 in0.0 mm 0.00 in0.0 mm 0.99 in25.1 mm
10:11 PM 40.5°F4.7°C 39.4°F4.1°C 96% 1.0 mph NNE1.6 kmh NNE 5.0 mph8.0 kmh 29.49 in998.6 mb 0.00 in0.0 mm 0.00 in0.0 mm 0.99 in25.1 mm
11:11 PM 39.7°F4.3°C 38.8°F3.8°C 96% 1.0 mph N1.6 kmh N 5.0 mph8.0 kmh 29.52 in999.7 mb 0.00 in0.0 mm 0.00 in0.0 mm 0.99 in25.1 mm